JBU271 KTPA-KATL
Flight info
| Callsign | JBU271 |
|---|---|
| Flight time | 0h 59m |
| Altitude | 33000 |
| Route | BAYPO2 CAMJO LAIRI LARZZ JJEDI4 |
| Aircraft | A320/M-SDE3FGHIRWY/LB1 |
Departure
| Time | 2026-05-03 21:29 |
|---|---|
| Airport | Tampa International Airport (KTPA) |
Arrival
| Time | 2026-05-03 22:28 |
|---|---|
| Airport | Hartsfield Jackson Atlanta International Airport (KATL) |
| Time | Latitude | Longitude | Altitude | Speed | Heading |
|---|---|---|---|---|---|
| 2026-05-03 20:58 | 27.97954 | -82.53877 | 36 ft | 0 kts | 91° |
| 2026-05-03 21:17 | 27.97954 | -82.53885 | 35 ft | 4 kts | 93° |
| 2026-05-03 21:17 | 27.97956 | -82.53906 | 35 ft | 4 kts | 99° |
| 2026-05-03 21:17 | 27.97965 | -82.53945 | 35 ft | 4 kts | 117° |
| 2026-05-03 21:17 | 27.97981 | -82.53968 | 35 ft | 4 kts | 151° |
| 2026-05-03 21:18 | 27.98001 | -82.53973 | 36 ft | 4 kts | 175° |
| 2026-05-03 21:18 | 27.98011 | -82.53973 | 36 ft | 1 kts | 181° |
| 2026-05-03 21:23 | 27.98010 | -82.53973 | 36 ft | 1 kts | 181° |
| 2026-05-03 21:23 | 27.97992 | -82.53974 | 36 ft | 4 kts | 181° |
| 2026-05-03 21:23 | 27.97952 | -82.53975 | 35 ft | 8 kts | 181° |
| 2026-05-03 21:23 | 27.97888 | -82.53976 | 33 ft | 11 kts | 181° |
| 2026-05-03 21:24 | 27.97806 | -82.53978 | 33 ft | 12 kts | 181° |
| 2026-05-03 21:24 | 27.97720 | -82.53980 | 32 ft | 11 kts | 181° |
| 2026-05-03 21:24 | 27.97645 | -82.53982 | 34 ft | 11 kts | 182° |
| 2026-05-03 21:24 | 27.97561 | -82.53988 | 32 ft | 13 kts | 184° |
| 2026-05-03 21:25 | 27.97464 | -82.53991 | 33 ft | 15 kts | 181° |
| 2026-05-03 21:25 | 27.97368 | -82.53995 | 35 ft | 10 kts | 192° |
| 2026-05-03 21:25 | 27.97336 | -82.54050 | 34 ft | 8 kts | 248° |
| 2026-05-03 21:25 | 27.97287 | -82.54080 | 37 ft | 11 kts | 180° |
| 2026-05-03 21:26 | 27.97189 | -82.54083 | 38 ft | 18 kts | 183° |
| 2026-05-03 21:26 | 27.97047 | -82.54087 | 40 ft | 22 kts | 182° |
| 2026-05-03 21:26 | 27.96892 | -82.54093 | 39 ft | 24 kts | 182° |
| 2026-05-03 21:26 | 27.96715 | -82.54099 | 35 ft | 26 kts | 182° |
| 2026-05-03 21:27 | 27.96535 | -82.54105 | 33 ft | 23 kts | 181° |
| 2026-05-03 21:27 | 27.96403 | -82.54109 | 29 ft | 16 kts | 181° |
| 2026-05-03 21:27 | 27.96341 | -82.54127 | 27 ft | 8 kts | 239° |
| 2026-05-03 21:27 | 27.96338 | -82.54198 | 27 ft | 10 kts | 273° |
| 2026-05-03 21:28 | 27.96360 | -82.54233 | 28 ft | 5 kts | 356° |
| 2026-05-03 21:28 | 27.96371 | -82.54233 | 28 ft | 0 kts | 0° |
| 2026-05-03 21:28 | 27.96458 | -82.54231 | 31 ft | 42 kts | 1° |
| 2026-05-03 21:29 | 27.96978 | -82.54212 | 41 ft | 107 kts | 2° |
| 2026-05-03 21:29 | 27.97936 | -82.54180 | 35 ft | 165 kts | 2° |
| 2026-05-03 21:29 | 27.99160 | -82.54129 | 551 ft | 177 kts | 2° |
| 2026-05-03 21:29 | 28.00385 | -82.54084 | 1367 ft | 175 kts | 3° |
| 2026-05-03 21:30 | 28.01580 | -82.54037 | 1925 ft | 174 kts | 3° |
| 2026-05-03 21:30 | 28.02782 | -82.54020 | 2495 ft | 172 kts | 357° |
| 2026-05-03 21:30 | 28.03959 | -82.54236 | 3064 ft | 169 kts | 354° |
| 2026-05-03 21:30 | 28.05125 | -82.54481 | 3519 ft | 174 kts | 354° |
| 2026-05-03 21:31 | 28.06372 | -82.54740 | 3745 ft | 192 kts | 353° |
| 2026-05-03 21:31 | 28.07766 | -82.55029 | 3928 ft | 213 kts | 353° |
| 2026-05-03 21:31 | 28.09268 | -82.55343 | 4248 ft | 227 kts | 352° |
| 2026-05-03 21:31 | 28.10904 | -82.55686 | 4519 ft | 250 kts | 351° |
| 2026-05-03 21:32 | 28.12068 | -82.55931 | 4801 ft | 261 kts | 351° |
| 2026-05-03 21:32 | 28.13876 | -82.56316 | 5468 ft | 268 kts | 351° |
| 2026-05-03 21:32 | 28.15716 | -82.56711 | 6200 ft | 272 kts | 350° |
| 2026-05-03 21:32 | 28.17592 | -82.57116 | 6914 ft | 277 kts | 349° |
| 2026-05-03 21:33 | 28.19501 | -82.57520 | 7596 ft | 282 kts | 352° |
| 2026-05-03 21:33 | 28.21474 | -82.57654 | 8278 ft | 286 kts | 359° |
| 2026-05-03 21:33 | 28.23464 | -82.57711 | 9031 ft | 286 kts | 358° |
| 2026-05-03 21:33 | 28.25459 | -82.57768 | 9726 ft | 288 kts | 358° |
| 2026-05-03 21:34 | 28.27474 | -82.57827 | 10415 ft | 290 kts | 356° |
| 2026-05-03 21:34 | 28.29501 | -82.57883 | 11037 ft | 294 kts | 354° |
| 2026-05-03 21:34 | 28.31598 | -82.57944 | 11314 ft | 311 kts | 353° |
| 2026-05-03 21:34 | 28.33828 | -82.58017 | 11507 ft | 329 kts | 353° |
| 2026-05-03 21:35 | 28.36176 | -82.58094 | 11762 ft | 345 kts | 353° |
| 2026-05-03 21:35 | 28.38627 | -82.58172 | 11962 ft | 361 kts | 353° |
| 2026-05-03 21:35 | 28.41201 | -82.58244 | 12028 ft | 380 kts | 353° |
| 2026-05-03 21:35 | 28.43908 | -82.58311 | 12020 ft | 395 kts | 354° |
| 2026-05-03 21:36 | 28.46674 | -82.58371 | 12019 ft | 399 kts | 354° |
| 2026-05-03 21:36 | 28.49489 | -82.58430 | 12019 ft | 409 kts | 354° |
| 2026-05-03 21:36 | 28.52347 | -82.58494 | 12054 ft | 412 kts | 354° |
| 2026-05-03 21:36 | 28.55186 | -82.58557 | 12017 ft | 412 kts | 354° |
| 2026-05-03 21:37 | 28.58057 | -82.58621 | 12019 ft | 413 kts | 354° |
| 2026-05-03 21:37 | 28.60927 | -82.58687 | 12019 ft | 412 kts | 354° |
| 2026-05-03 21:37 | 28.63805 | -82.58757 | 12238 ft | 415 kts | 354° |
| 2026-05-03 21:37 | 28.66701 | -82.58838 | 12769 ft | 417 kts | 352° |
| 2026-05-03 21:38 | 28.69581 | -82.59191 | 13243 ft | 418 kts | 348° |
| 2026-05-03 21:38 | 28.72482 | -82.59601 | 13705 ft | 421 kts | 348° |
| 2026-05-03 21:38 | 28.75399 | -82.60012 | 14174 ft | 424 kts | 348° |
| 2026-05-03 21:38 | 28.78341 | -82.60426 | 14599 ft | 428 kts | 348° |
| 2026-05-03 21:39 | 28.81306 | -82.60844 | 15020 ft | 431 kts | 347° |
| 2026-05-03 21:39 | 28.84298 | -82.61264 | 15436 ft | 434 kts | 347° |
| 2026-05-03 21:39 | 28.87307 | -82.61687 | 15857 ft | 438 kts | 347° |
| 2026-05-03 21:39 | 28.90339 | -82.62112 | 16248 ft | 441 kts | 347° |
| 2026-05-03 21:40 | 28.93394 | -82.62538 | 16645 ft | 444 kts | 347° |
| 2026-05-03 21:40 | 28.96473 | -82.62965 | 17036 ft | 447 kts | 347° |
| 2026-05-03 21:40 | 28.99573 | -82.63396 | 17427 ft | 450 kts | 347° |
| 2026-05-03 21:40 | 29.02690 | -82.63830 | 17815 ft | 453 kts | 347° |
| 2026-05-03 21:41 | 29.05830 | -82.64268 | 18195 ft | 456 kts | 347° |
| 2026-05-03 21:41 | 29.08985 | -82.64707 | 18567 ft | 458 kts | 347° |
| 2026-05-03 21:41 | 29.10057 | -82.64856 | 18684 ft | 459 kts | 347° |
| 2026-05-03 21:42 | 29.28327 | -82.67427 | 20683 ft | 473 kts | 347° |
| 2026-05-03 21:43 | 29.31602 | -82.67891 | 20978 ft | 475 kts | 347° |
| 2026-05-03 21:43 | 29.34893 | -82.68357 | 21255 ft | 478 kts | 347° |
| 2026-05-03 21:43 | 29.38201 | -82.68821 | 21545 ft | 480 kts | 347° |
| 2026-05-03 21:43 | 29.41532 | -82.69260 | 21801 ft | 484 kts | 350° |
| 2026-05-03 21:44 | 29.44934 | -82.69312 | 22043 ft | 491 kts | 354° |
| 2026-05-03 21:44 | 29.48354 | -82.69286 | 22292 ft | 493 kts | 354° |
| 2026-05-03 21:44 | 29.51789 | -82.69259 | 22551 ft | 495 kts | 354° |
| 2026-05-03 21:44 | 29.55238 | -82.69236 | 22811 ft | 496 kts | 354° |
| 2026-05-03 21:45 | 29.58695 | -82.69216 | 23064 ft | 498 kts | 354° |
| 2026-05-03 21:45 | 29.62172 | -82.69198 | 23316 ft | 501 kts | 354° |
| 2026-05-03 21:45 | 29.65662 | -82.69177 | 23566 ft | 503 kts | 354° |
| 2026-05-03 21:45 | 29.69169 | -82.69155 | 23818 ft | 504 kts | 354° |
| 2026-05-03 21:46 | 29.72685 | -82.69133 | 24059 ft | 506 kts | 354° |
| 2026-05-03 21:46 | 29.76220 | -82.69110 | 24391 ft | 506 kts | 353° |
| 2026-05-03 21:46 | 29.79742 | -82.69087 | 24764 ft | 506 kts | 353° |
| 2026-05-03 21:46 | 29.83261 | -82.69063 | 25124 ft | 505 kts | 353° |
| 2026-05-03 21:47 | 29.86772 | -82.69041 | 25484 ft | 505 kts | 353° |
| 2026-05-03 21:47 | 29.90283 | -82.69020 | 25843 ft | 504 kts | 353° |
| 2026-05-03 21:47 | 29.93757 | -82.68999 | 26191 ft | 504 kts | 353° |
| 2026-05-03 21:47 | 29.97297 | -82.68976 | 26534 ft | 504 kts | 353° |
| 2026-05-03 21:48 | 30.00804 | -82.68954 | 26890 ft | 504 kts | 353° |
| 2026-05-03 21:48 | 30.04305 | -82.68931 | 27264 ft | 503 kts | 352° |
| 2026-05-03 21:48 | 30.07796 | -82.68908 | 27657 ft | 501 kts | 352° |
| 2026-05-03 21:48 | 30.11284 | -82.68885 | 28024 ft | 500 kts | 352° |
| 2026-05-03 21:49 | 30.14718 | -82.68863 | 28380 ft | 499 kts | 352° |
| 2026-05-03 21:49 | 30.18193 | -82.68839 | 28741 ft | 499 kts | 352° |
| 2026-05-03 21:49 | 30.21665 | -82.68816 | 29085 ft | 499 kts | 352° |
| 2026-05-03 21:49 | 30.25134 | -82.68796 | 29404 ft | 498 kts | 352° |
| 2026-05-03 21:50 | 30.28600 | -82.68777 | 29746 ft | 498 kts | 352° |
| 2026-05-03 21:50 | 30.32060 | -82.68755 | 30079 ft | 497 kts | 351° |
| 2026-05-03 21:50 | 30.35519 | -82.68734 | 30415 ft | 497 kts | 351° |
| 2026-05-03 21:50 | 30.38978 | -82.68713 | 30769 ft | 496 kts | 351° |
| 2026-05-03 21:51 | 30.42424 | -82.68691 | 31047 ft | 496 kts | 351° |
| 2026-05-03 21:51 | 30.45899 | -82.68667 | 31115 ft | 496 kts | 351° |
| 2026-05-03 21:51 | 30.52818 | -82.68568 | 31118 ft | 497 kts | 353° |
| 2026-05-03 21:52 | 30.59722 | -82.68037 | 31119 ft | 501 kts | 356° |
| 2026-05-03 21:52 | 30.66663 | -82.67253 | 31118 ft | 500 kts | 356° |
| 2026-05-03 21:53 | 30.73591 | -82.66527 | 31119 ft | 499 kts | 355° |
| 2026-05-03 21:53 | 30.80516 | -82.65899 | 31128 ft | 498 kts | 355° |
| 2026-05-03 21:54 | 30.87436 | -82.65299 | 31138 ft | 498 kts | 355° |
| 2026-05-03 21:54 | 30.94355 | -82.64674 | 31142 ft | 498 kts | 355° |
| 2026-05-03 21:55 | 31.01217 | -82.64046 | 31142 ft | 498 kts | 355° |
| 2026-05-03 21:55 | 31.08120 | -82.63412 | 31145 ft | 498 kts | 355° |
| 2026-05-03 21:56 | 31.15027 | -82.62771 | 31150 ft | 497 kts | 355° |
| 2026-05-03 21:56 | 31.21915 | -82.62128 | 31150 ft | 496 kts | 355° |
| 2026-05-03 21:57 | 31.28790 | -82.61488 | 31149 ft | 495 kts | 355° |
| 2026-05-03 21:57 | 31.35666 | -82.60852 | 31146 ft | 495 kts | 355° |
| 2026-05-03 21:58 | 31.42538 | -82.60209 | 31145 ft | 494 kts | 355° |
| 2026-05-03 21:58 | 31.49391 | -82.59572 | 31144 ft | 493 kts | 355° |
| 2026-05-03 21:59 | 31.56223 | -82.58943 | 31139 ft | 492 kts | 355° |
| 2026-05-03 21:59 | 31.63059 | -82.58318 | 31146 ft | 493 kts | 355° |
| 2026-05-03 22:00 | 31.69890 | -82.57671 | 31148 ft | 492 kts | 355° |
| 2026-05-03 22:00 | 31.76699 | -82.57030 | 31140 ft | 490 kts | 355° |
| 2026-05-03 22:01 | 31.83495 | -82.56402 | 31133 ft | 490 kts | 355° |
| 2026-05-03 22:01 | 31.84598 | -82.56300 | 31133 ft | 490 kts | 355° |
| 2026-05-03 22:02 | 31.93764 | -82.56340 | 31136 ft | 465 kts | 337° |
| 2026-05-03 22:02 | 31.96772 | -82.57382 | 31130 ft | 451 kts | 328° |
| 2026-05-03 22:02 | 31.99160 | -82.58699 | 31127 ft | 439 kts | 320° |
| 2026-05-03 22:02 | 32.01675 | -82.60660 | 31121 ft | 428 kts | 312° |
| 2026-05-03 22:03 | 32.06142 | -82.65187 | 31114 ft | 424 kts | 310° |
| 2026-05-03 22:03 | 32.10609 | -82.69738 | 31113 ft | 424 kts | 310° |
| 2026-05-03 22:04 | 32.15071 | -82.74290 | 31110 ft | 424 kts | 310° |
| 2026-05-03 22:04 | 32.19530 | -82.78856 | 31107 ft | 425 kts | 310° |
| 2026-05-03 22:05 | 32.23996 | -82.83438 | 31106 ft | 425 kts | 310° |
| 2026-05-03 22:05 | 32.28458 | -82.88011 | 30667 ft | 423 kts | 310° |
| 2026-05-03 22:06 | 32.30686 | -82.90298 | 30146 ft | 426 kts | 310° |
| 2026-05-03 22:06 | 32.32921 | -82.92599 | 29648 ft | 425 kts | 310° |
| 2026-05-03 22:06 | 32.35146 | -82.94889 | 29148 ft | 423 kts | 311° |
| 2026-05-03 22:06 | 32.37360 | -82.97169 | 28647 ft | 421 kts | 311° |
| 2026-05-03 22:07 | 32.39565 | -82.99441 | 28146 ft | 420 kts | 311° |
| 2026-05-03 22:07 | 32.41739 | -83.01680 | 27654 ft | 418 kts | 311° |
| 2026-05-03 22:07 | 32.43927 | -83.03930 | 27145 ft | 416 kts | 312° |
| 2026-05-03 22:07 | 32.46108 | -83.06172 | 26640 ft | 414 kts | 312° |
| 2026-05-03 22:08 | 32.48279 | -83.08403 | 26142 ft | 413 kts | 312° |
| 2026-05-03 22:08 | 32.50441 | -83.10629 | 25631 ft | 411 kts | 312° |
| 2026-05-03 22:08 | 32.52594 | -83.12853 | 25139 ft | 409 kts | 313° |
| 2026-05-03 22:08 | 32.54737 | -83.15069 | 24638 ft | 408 kts | 313° |
| 2026-05-03 22:09 | 32.56868 | -83.17271 | 24136 ft | 406 kts | 313° |
| 2026-05-03 22:09 | 32.58989 | -83.19464 | 23636 ft | 403 kts | 314° |
| 2026-05-03 22:09 | 32.61099 | -83.21648 | 23135 ft | 401 kts | 314° |
| 2026-05-03 22:10 | 32.65274 | -83.25983 | 22133 ft | 396 kts | 314° |
| 2026-05-03 22:10 | 32.67343 | -83.28136 | 21638 ft | 393 kts | 314° |
| 2026-05-03 22:10 | 32.69391 | -83.30269 | 21199 ft | 391 kts | 314° |
| 2026-05-03 22:10 | 32.71433 | -83.32393 | 20702 ft | 388 kts | 314° |
| 2026-05-03 22:11 | 32.73460 | -83.34503 | 20202 ft | 386 kts | 314° |
| 2026-05-03 22:11 | 32.74113 | -83.35185 | 20039 ft | 385 kts | 314° |
| 2026-05-03 22:11 | 32.79451 | -83.40760 | 18690 ft | 378 kts | 315° |
| 2026-05-03 22:12 | 32.81431 | -83.42819 | 18194 ft | 375 kts | 315° |
| 2026-05-03 22:12 | 32.83387 | -83.44857 | 17705 ft | 373 kts | 315° |
| 2026-05-03 22:12 | 32.85332 | -83.46883 | 17256 ft | 371 kts | 315° |
| 2026-05-03 22:12 | 32.87266 | -83.48899 | 16765 ft | 368 kts | 315° |
| 2026-05-03 22:13 | 32.89185 | -83.50902 | 16287 ft | 364 kts | 315° |
| 2026-05-03 22:13 | 32.91062 | -83.52862 | 16040 ft | 353 kts | 315° |
| 2026-05-03 22:13 | 32.92871 | -83.54753 | 15850 ft | 341 kts | 315° |
| 2026-05-03 22:13 | 32.94641 | -83.56605 | 15453 ft | 336 kts | 315° |
| 2026-05-03 22:14 | 32.96389 | -83.58437 | 15006 ft | 334 kts | 315° |
| 2026-05-03 22:14 | 32.98126 | -83.60259 | 14544 ft | 331 kts | 315° |
| 2026-05-03 22:14 | 32.99852 | -83.62073 | 14080 ft | 329 kts | 315° |
| 2026-05-03 22:14 | 33.01564 | -83.63872 | 13637 ft | 328 kts | 316° |
| 2026-05-03 22:15 | 33.03268 | -83.65660 | 13199 ft | 325 kts | 316° |
| 2026-05-03 22:15 | 33.04964 | -83.67438 | 12753 ft | 323 kts | 316° |
| 2026-05-03 22:15 | 33.06646 | -83.69202 | 12327 ft | 321 kts | 316° |
| 2026-05-03 22:15 | 33.08289 | -83.70929 | 12040 ft | 315 kts | 316° |
| 2026-05-03 22:16 | 33.09924 | -83.72647 | 11915 ft | 304 kts | 316° |
| 2026-05-03 22:16 | 33.11483 | -83.74285 | 11788 ft | 294 kts | 316° |
| 2026-05-03 22:16 | 33.12989 | -83.75870 | 11649 ft | 287 kts | 316° |
| 2026-05-03 22:16 | 33.14482 | -83.77442 | 11403 ft | 285 kts | 316° |
| 2026-05-03 22:17 | 33.15964 | -83.79008 | 11156 ft | 284 kts | 316° |
| 2026-05-03 22:17 | 33.17423 | -83.80551 | 10914 ft | 283 kts | 316° |
| 2026-05-03 22:17 | 33.18899 | -83.82112 | 10703 ft | 283 kts | 316° |
| 2026-05-03 22:17 | 33.20343 | -83.83708 | 10469 ft | 283 kts | 317° |
| 2026-05-03 22:18 | 33.21881 | -83.85176 | 10219 ft | 283 kts | 321° |
| 2026-05-03 22:18 | 33.23462 | -83.86573 | 9970 ft | 282 kts | 322° |
| 2026-05-03 22:18 | 33.25052 | -83.87942 | 9667 ft | 282 kts | 323° |
| 2026-05-03 22:18 | 33.26642 | -83.89307 | 9295 ft | 281 kts | 323° |
| 2026-05-03 22:19 | 33.28228 | -83.90671 | 8918 ft | 281 kts | 323° |
| 2026-05-03 22:19 | 33.29808 | -83.92040 | 8545 ft | 280 kts | 323° |
| 2026-05-03 22:19 | 33.31379 | -83.93407 | 8194 ft | 278 kts | 322° |
| 2026-05-03 22:19 | 33.32936 | -83.94771 | 7842 ft | 277 kts | 322° |
| 2026-05-03 22:20 | 33.34484 | -83.96132 | 7467 ft | 275 kts | 322° |
| 2026-05-03 22:20 | 33.36023 | -83.97486 | 7128 ft | 274 kts | 322° |
| 2026-05-03 22:20 | 33.37557 | -83.98833 | 6883 ft | 273 kts | 322° |
| 2026-05-03 22:20 | 33.39088 | -84.00177 | 6631 ft | 273 kts | 322° |
| 2026-05-03 22:21 | 33.40614 | -84.01518 | 6380 ft | 272 kts | 322° |
| 2026-05-03 22:21 | 33.42135 | -84.02853 | 6140 ft | 270 kts | 322° |
| 2026-05-03 22:21 | 33.43646 | -84.04181 | 6023 ft | 271 kts | 322° |
| 2026-05-03 22:21 | 33.44650 | -84.05064 | 5880 ft | 270 kts | 322° |
| 2026-05-03 22:22 | 33.46156 | -84.06392 | 5611 ft | 268 kts | 322° |
| 2026-05-03 22:22 | 33.47659 | -84.07714 | 5360 ft | 267 kts | 322° |
| 2026-05-03 22:22 | 33.49153 | -84.09028 | 5108 ft | 266 kts | 322° |
| 2026-05-03 22:22 | 33.50642 | -84.10340 | 4857 ft | 265 kts | 322° |
| 2026-05-03 22:23 | 33.52128 | -84.11651 | 4603 ft | 264 kts | 322° |
| 2026-05-03 22:23 | 33.53604 | -84.12959 | 4342 ft | 263 kts | 322° |
| 2026-05-03 22:23 | 33.55080 | -84.14267 | 4132 ft | 264 kts | 322° |
| 2026-05-03 22:23 | 33.56551 | -84.15571 | 3904 ft | 263 kts | 322° |
| 2026-05-03 22:24 | 33.58019 | -84.16871 | 3651 ft | 261 kts | 322° |
| 2026-05-03 22:24 | 33.59471 | -84.18151 | 3397 ft | 253 kts | 322° |
| 2026-05-03 22:24 | 33.60880 | -84.19392 | 3148 ft | 250 kts | 322° |
| 2026-05-03 22:24 | 33.62156 | -84.20788 | 3020 ft | 247 kts | 306° |
| 2026-05-03 22:25 | 33.62949 | -84.22603 | 3014 ft | 247 kts | 286° |
| 2026-05-03 22:25 | 33.63172 | -84.24634 | 3017 ft | 247 kts | 270° |
| 2026-05-03 22:25 | 33.63172 | -84.26617 | 3010 ft | 225 kts | 270° |
| 2026-05-03 22:25 | 33.63172 | -84.28407 | 3018 ft | 209 kts | 270° |
| 2026-05-03 22:26 | 33.63175 | -84.30077 | 2896 ft | 191 kts | 270° |
| 2026-05-03 22:26 | 33.63176 | -84.31620 | 2661 ft | 180 kts | 270° |
| 2026-05-03 22:26 | 33.63178 | -84.33075 | 2429 ft | 169 kts | 270° |
| 2026-05-03 22:26 | 33.63179 | -84.34425 | 2250 ft | 155 kts | 271° |
| 2026-05-03 22:27 | 33.63180 | -84.35693 | 2033 ft | 149 kts | 271° |
| 2026-05-03 22:27 | 33.63181 | -84.36928 | 1830 ft | 147 kts | 270° |
| 2026-05-03 22:27 | 33.63181 | -84.38153 | 1639 ft | 147 kts | 271° |
| 2026-05-03 22:27 | 33.63181 | -84.39375 | 1445 ft | 147 kts | 270° |
| 2026-05-03 22:28 | 33.63182 | -84.40603 | 1249 ft | 147 kts | 271° |
| 2026-05-03 22:28 | 33.63181 | -84.41834 | 1040 ft | 147 kts | 270° |
| 2026-05-03 22:28 | 33.63183 | -84.42938 | 1007 ft | 115 kts | 270° |
| 2026-05-03 22:28 | 33.63186 | -84.43472 | 1007 ft | 19 kts | 277° |
| 2026-05-03 22:29 | 33.63225 | -84.43619 | 1007 ft | 19 kts | 292° |
| 2026-05-03 22:29 | 33.63283 | -84.43736 | 1006 ft | 10 kts | 303° |
| 2026-05-03 22:29 | 33.63326 | -84.43815 | 1006 ft | 12 kts | 302° |
| 2026-05-03 22:29 | 33.63355 | -84.43917 | 1006 ft | 14 kts | 283° |
| 2026-05-03 22:30 | 33.63361 | -84.44037 | 1006 ft | 15 kts | 270° |
| 2026-05-03 22:30 | 33.63369 | -84.44164 | 1006 ft | 12 kts | 300° |
| 2026-05-03 22:30 | 33.63456 | -84.44194 | 1006 ft | 16 kts | 359° |
| 2026-05-03 22:30 | 33.63570 | -84.44192 | 1007 ft | 17 kts | 1° |
| 2026-05-03 22:31 | 33.63651 | -84.44168 | 1007 ft | 12 kts | 51° |
| 2026-05-03 22:31 | 33.63663 | -84.44070 | 1007 ft | 13 kts | 90° |
| 2026-05-03 22:31 | 33.63664 | -84.43956 | 1006 ft | 14 kts | 89° |
| 2026-05-03 22:31 | 33.63664 | -84.43829 | 1006 ft | 16 kts | 91° |
| 2026-05-03 22:32 | 33.63679 | -84.43728 | 1006 ft | 11 kts | 46° |
| 2026-05-03 22:32 | 33.63740 | -84.43721 | 1006 ft | 6 kts | 358° |
| 2026-05-03 22:32 | 33.63752 | -84.43721 | 1006 ft | 1 kts | 358° |
| 2026-05-03 22:32 | 33.63765 | -84.43722 | 1006 ft | 3 kts | 358° |
| 2026-05-03 22:33 | 33.63789 | -84.43720 | 1006 ft | 4 kts | 15° |
| 2026-05-03 22:33 | 33.63794 | -84.43693 | 1006 ft | 4 kts | 93° |
| 2026-05-03 22:33 | 33.63794 | -84.43663 | 1006 ft | 2 kts | 90° |
| 2026-05-03 22:33 | 33.63794 | -84.43651 | 1006 ft | 0 kts | 90° |
| 2026-05-03 22:34 | 33.63794 | -84.43650 | 1006 ft | 0 kts | 90° |